sensor_id;sensor_type;location;lat;lon;timestamp;pressure;altitude;pressure_sealevel;temperature;humidity
75418;BME280;63997;52.112;5.420;2022-11-24T00:00:10;100330.50;;;7.21;93.56
75418;BME280;63997;52.112;5.420;2022-11-24T00:02:37;100326.94;;;7.25;93.74
75418;BME280;63997;52.112;5.420;2022-11-24T00:05:04;100324.44;;;7.29;93.71
75418;BME280;63997;52.112;5.420;2022-11-24T00:07:30;100316.66;;;7.32;93.63
75418;BME280;63997;52.112;5.420;2022-11-24T00:09:57;100313.09;;;7.37;93.63
75418;BME280;63997;52.112;5.420;2022-11-24T00:12:23;100325.25;;;7.38;93.60
75418;BME280;63997;52.112;5.420;2022-11-24T00:14:50;100337.38;;;7.39;93.57
75418;BME280;63997;52.112;5.420;2022-11-24T00:17:16;100350.59;;;7.39;93.49
75418;BME280;63997;52.112;5.420;2022-11-24T00:19:43;100359.31;;;7.39;93.40
75418;BME280;63997;52.112;5.420;2022-11-24T00:22:09;100356.22;;;7.37;93.46
75418;BME280;63997;52.112;5.420;2022-11-24T00:24:36;100355.44;;;7.37;93.44
75418;BME280;63997;52.112;5.420;2022-11-24T00:27:02;100355.44;;;7.37;93.18
75418;BME280;63997;52.112;5.420;2022-11-24T00:29:28;100350.75;;;7.34;92.98
75418;BME280;63997;52.112;5.420;2022-11-24T00:31:55;100357.13;;;7.33;93.05
75418;BME280;63997;52.112;5.420;2022-11-24T00:34:22;100352.16;;;7.31;93.03
75418;BME280;63997;52.112;5.420;2022-11-24T00:36:48;100355.88;;;7.30;93.00
75418;BME280;63997;52.112;5.420;2022-11-24T00:39:15;100353.06;;;7.27;93.08
75418;BME280;63997;52.112;5.420;2022-11-24T00:41:42;100350.44;;;7.27;93.26
75418;BME280;63997;52.112;5.420;2022-11-24T00:44:09;100360.22;;;7.26;93.25
75418;BME280;63997;52.112;5.420;2022-11-24T00:46:35;100345.91;;;7.27;93.21
75418;BME280;63997;52.112;5.420;2022-11-24T00:49:03;100352.28;;;7.26;93.32
75418;BME280;63997;52.112;5.420;2022-11-24T00:51:30;100361.59;;;7.24;93.24
75418;BME280;63997;52.112;5.420;2022-11-24T00:53:58;100350.25;;;7.23;93.21
75418;BME280;63997;52.112;5.420;2022-11-24T00:56:26;100361.59;;;7.24;93.18
75418;BME280;63997;52.112;5.420;2022-11-24T00:58:53;100368.63;;;7.20;92.94
75418;BME280;63997;52.112;5.420;2022-11-24T01:01:24;100372.97;;;7.15;93.00
75418;BME280;63997;52.112;5.420;2022-11-24T01:03:51;100371.72;;;7.13;92.96
75418;BME280;63997;52.112;5.420;2022-11-24T01:06:22;100377.91;;;7.08;92.90
75418;BME280;63997;52.112;5.420;2022-11-24T01:08:49;100384.31;;;7.07;92.90
75418;BME280;63997;52.112;5.420;2022-11-24T01:11:18;100381.78;;;7.02;93.12
75418;BME280;63997;52.112;5.420;2022-11-24T01:13:48;100377.09;;;6.99;93.02
75418;BME280;63997;52.112;5.420;2022-11-24T01:16:25;100384.84;;;6.96;93.03
75418;BME280;63997;52.112;5.420;2022-11-24T01:18:52;100390.44;;;6.94;92.90
75418;BME280;63997;52.112;5.420;2022-11-24T01:21:19;100395.59;;;6.91;92.92
75418;BME280;63997;52.112;5.420;2022-11-24T01:23:46;100400.06;;;6.90;93.02
75418;BME280;63997;52.112;5.420;2022-11-24T01:26:19;100392.44;;;6.88;92.94
75418;BME280;63997;52.112;5.420;2022-11-24T01:28:50;100395.41;;;6.87;92.95
75418;BME280;63997;52.112;5.420;2022-11-24T01:31:18;100394.00;;;6.89;93.02
75418;BME280;63997;52.112;5.420;2022-11-24T01:33:47;100391.69;;;6.88;92.94
75418;BME280;63997;52.112;5.420;2022-11-24T01:36:13;100399.13;;;6.86;92.61
75418;BME280;63997;52.112;5.420;2022-11-24T01:38:40;100394.44;;;6.83;92.82
75418;BME280;63997;52.112;5.420;2022-11-24T01:41:09;100391.22;;;6.86;92.82
75418;BME280;63997;52.112;5.420;2022-11-24T01:43:36;100405.03;;;6.83;92.79
75418;BME280;63997;52.112;5.420;2022-11-24T01:48:47;100406.88;;;6.82;92.71
75418;BME280;63997;52.112;5.420;2022-11-24T01:51:27;100402.25;;;6.88;92.74
75418;BME280;63997;52.112;5.420;2022-11-24T01:54:00;100404.28;;;6.91;92.58
75418;BME280;63997;52.112;5.420;2022-11-24T01:56:30;100411.00;;;6.97;92.59
75418;BME280;63997;52.112;5.420;2022-11-24T01:59:00;100413.53;;;7.02;92.58
75418;BME280;63997;52.112;5.420;2022-11-24T02:01:28;100412.88;;;7.05;92.43
75418;BME280;63997;52.112;5.420;2022-11-24T02:03:57;100416.03;;;7.07;92.04
75418;BME280;63997;52.112;5.420;2022-11-24T02:06:29;100419.91;;;7.10;92.29
75418;BME280;63997;52.112;5.420;2022-11-24T02:09:02;100407.34;;;7.15;92.37
75418;BME280;63997;52.112;5.420;2022-11-24T02:11:34;100413.88;;;7.18;92.20
75418;BME280;63997;52.112;5.420;2022-11-24T02:14:04;100423.84;;;7.21;92.21
75418;BME280;63997;52.112;5.420;2022-11-24T02:16:35;100418.72;;;7.25;92.03
75418;BME280;63997;52.112;5.420;2022-11-24T02:19:13;100427.75;;;7.32;92.09
75418;BME280;63997;52.112;5.420;2022-11-24T02:21:43;100421.88;;;7.35;91.82
75418;BME280;63997;52.112;5.420;2022-11-24T02:24:24;100421.25;;;7.38;91.79
75418;BME280;63997;52.112;5.420;2022-11-24T02:26:50;100425.94;;;7.41;91.64
75418;BME280;63997;52.112;5.420;2022-11-24T02:29:17;100423.44;;;7.45;91.54
75418;BME280;63997;52.112;5.420;2022-11-24T02:31:53;100433.88;;;7.50;91.29
75418;BME280;63997;52.112;5.420;2022-11-24T02:34:20;100429.69;;;7.49;91.27
75418;BME280;63997;52.112;5.420;2022-11-24T02:36:46;100433.88;;;7.50;91.15
75418;BME280;63997;52.112;5.420;2022-11-24T02:39:16;100433.41;;;7.48;91.05
75418;BME280;63997;52.112;5.420;2022-11-24T02:41:47;100448.50;;;7.48;91.16
75418;BME280;63997;52.112;5.420;2022-11-24T02:44:16;100442.44;;;7.47;91.00
75418;BME280;63997;52.112;5.420;2022-11-24T02:46:45;100439.81;;;7.47;90.93
75418;BME280;63997;52.112;5.420;2022-11-24T02:49:11;100447.75;;;7.47;90.69
75418;BME280;63997;52.112;5.420;2022-11-24T02:51:38;100445.69;;;7.44;90.88
75418;BME280;63997;52.112;5.420;2022-11-24T02:54:07;100438.22;;;7.46;90.96
75418;BME280;63997;52.112;5.420;2022-11-24T02:56:34;100439.81;;;7.47;90.75
75418;BME280;63997;52.112;5.420;2022-11-24T02:59:01;100444.78;;;7.49;90.66
75418;BME280;63997;52.112;5.420;2022-11-24T03:01:27;100449.75;;;7.50;90.56
75418;BME280;63997;52.112;5.420;2022-11-24T03:03:54;100450.25;;;7.52;90.73
75418;BME280;63997;52.112;5.420;2022-11-24T03:06:20;100438.84;;;7.52;90.54
75418;BME280;63997;52.112;5.420;2022-11-24T03:08:46;100441.22;;;7.53;90.45
75418;BME280;63997;52.112;5.420;2022-11-24T03:11:13;100445.41;;;7.54;90.62
75418;BME280;63997;52.112;5.420;2022-11-24T03:13:40;100437.94;;;7.56;90.30
75418;BME280;63997;52.112;5.420;2022-11-24T03:16:07;100439.97;;;7.59;90.27
75418;BME280;63997;52.112;5.420;2022-11-24T03:18:35;100445.72;;;7.61;90.26
75418;BME280;63997;52.112;5.420;2022-11-24T03:21:02;100449.94;;;7.62;90.24
75418;BME280;63997;52.112;5.420;2022-11-24T03:23:28;100451.19;;;7.65;89.87
75418;BME280;63997;52.112;5.420;2022-11-24T03:26:05;100450.88;;;7.66;89.85
75418;BME280;63997;52.112;5.420;2022-11-24T03:28:32;100456.19;;;7.66;89.82
75418;BME280;63997;52.112;5.420;2022-11-24T03:30:58;100447.47;;;7.66;89.84
75418;BME280;63997;52.112;5.420;2022-11-24T03:33:25;100455.09;;;7.67;89.81
75418;BME280;63997;52.112;5.420;2022-11-24T03:35:51;100450.56;;;7.68;89.58
75418;BME280;63997;52.112;5.420;2022-11-24T03:38:18;100457.28;;;7.65;89.51
75418;BME280;63997;52.112;5.420;2022-11-24T03:40:45;100454.94;;;7.64;89.68
75418;BME280;63997;52.112;5.420;2022-11-24T03:43:12;100454.75;;;7.60;89.63
75418;BME280;63997;52.112;5.420;2022-11-24T03:45:38;100461.94;;;7.60;89.74
75418;BME280;63997;52.112;5.420;2022-11-24T03:48:14;100457.41;;;7.60;89.47
75418;BME280;63997;52.112;5.420;2022-11-24T03:50:40;100462.38;;;7.62;89.46
75418;BME280;63997;52.112;5.420;2022-11-24T03:53:07;100456.31;;;7.61;89.18
75418;BME280;63997;52.112;5.420;2022-11-24T03:55:34;100461.94;;;7.60;88.96
75418;BME280;63997;52.112;5.420;2022-11-24T03:58:01;100469.88;;;7.60;89.39
75418;BME280;63997;52.112;5.420;2022-11-24T04:00:27;100473.59;;;7.59;89.51
75418;BME280;63997;52.112;5.420;2022-11-24T04:02:53;100481.22;;;7.60;89.39
75418;BME280;63997;52.112;5.420;2022-11-24T04:05:20;100472.19;;;7.61;89.18
75418;BME280;63997;52.112;5.420;2022-11-24T04:07:46;100477.16;;;7.63;89.29
75418;BME280;63997;52.112;5.420;2022-11-24T04:10:13;100481.69;;;7.62;89.24
75418;BME280;63997;52.112;5.420;2022-11-24T04:12:39;100479.03;;;7.62;89.35
75418;BME280;63997;52.112;5.420;2022-11-24T04:15:14;100492.28;;;7.62;89.42
75418;BME280;63997;52.112;5.420;2022-11-24T04:17:41;100485.13;;;7.63;89.23
75418;BME280;63997;52.112;5.420;2022-11-24T04:20:08;100493.38;;;7.61;89.30
75418;BME280;63997;52.112;5.420;2022-11-24T04:22:35;100497.88;;;7.61;89.29
75418;BME280;63997;52.112;5.420;2022-11-24T04:25:02;100497.56;;;7.62;89.16
75418;BME280;63997;52.112;5.420;2022-11-24T04:27:29;100498.66;;;7.61;89.34
75418;BME280;63997;52.112;5.420;2022-11-24T04:29:57;100500.84;;;7.59;89.27
75418;BME280;63997;52.112;5.420;2022-11-24T04:32:23;100505.38;;;7.59;89.33
75418;BME280;63997;52.112;5.420;2022-11-24T04:34:49;100509.88;;;7.58;89.47
75418;BME280;63997;52.112;5.420;2022-11-24T04:37:16;100513.59;;;7.57;89.45
75418;BME280;63997;52.112;5.420;2022-11-24T04:39:43;100516.72;;;7.59;89.68
75418;BME280;63997;52.112;5.420;2022-11-24T04:42:11;100520.91;;;7.60;89.85
75418;BME280;63997;52.112;5.420;2022-11-24T04:44:37;100522.63;;;7.56;89.86
75418;BME280;63997;52.112;5.420;2022-11-24T04:47:04;100535.84;;;7.56;90.19
75418;BME280;63997;52.112;5.420;2022-11-24T04:49:31;100539.44;;;7.60;90.19
75418;BME280;63997;52.112;5.420;2022-11-24T04:51:58;100542.41;;;7.59;90.06
75418;BME280;63997;52.112;5.420;2022-11-24T04:54:24;100549.25;;;7.60;90.31
75418;BME280;63997;52.112;5.420;2022-11-24T04:56:51;100561.72;;;7.59;90.23
75418;BME280;63997;52.112;5.420;2022-11-24T04:59:18;100565.13;;;7.60;90.18
75418;BME280;63997;52.112;5.420;2022-11-24T05:01:45;100557.50;;;7.58;90.55
75418;BME280;63997;52.112;5.420;2022-11-24T05:04:13;100571.53;;;7.59;90.44
75418;BME280;63997;52.112;5.420;2022-11-24T05:06:40;100572.59;;;7.58;90.34
75418;BME280;63997;52.112;5.420;2022-11-24T05:09:07;100570.25;;;7.56;90.42
75418;BME280;63997;52.112;5.420;2022-11-24T05:11:33;100578.69;;;7.58;90.37
75418;BME280;63997;52.112;5.420;2022-11-24T05:14:00;100583.19;;;7.58;90.04
75418;BME280;63997;52.112;5.420;2022-11-24T05:16:27;100590.81;;;7.59;90.07
75418;BME280;63997;52.112;5.420;2022-11-24T05:18:53;100591.41;;;7.56;90.07
75418;BME280;63997;52.112;5.420;2022-11-24T05:21:19;100601.53;;;7.54;90.10
75418;BME280;63997;52.112;5.420;2022-11-24T05:23:46;100610.06;;;7.51;90.14
75418;BME280;63997;52.112;5.420;2022-11-24T05:26:12;100613.81;;;7.50;90.35
75418;BME280;63997;52.112;5.420;2022-11-24T05:28:39;100611.47;;;7.49;90.34
75418;BME280;63997;52.112;5.420;2022-11-24T05:31:05;100614.41;;;7.47;90.33
75418;BME280;63997;52.112;5.420;2022-11-24T05:33:31;100627.16;;;7.45;90.64
75418;BME280;63997;52.112;5.420;2022-11-24T05:36:03;100626.69;;;7.43;90.62
75418;BME280;63997;52.112;5.420;2022-11-24T05:38:31;100626.22;;;7.41;90.63
75418;BME280;63997;52.112;5.420;2022-11-24T05:41:04;100624.63;;;7.40;90.48
75418;BME280;63997;52.112;5.420;2022-11-24T05:43:31;100631.31;;;7.37;90.48
75418;BME280;63997;52.112;5.420;2022-11-24T05:45:58;100630.34;;;7.33;90.53
75418;BME280;63997;52.112;5.420;2022-11-24T05:48:25;100643.91;;;7.32;90.66
75418;BME280;63997;52.112;5.420;2022-11-24T05:50:56;100649.78;;;7.29;90.66
75418;BME280;63997;52.112;5.420;2022-11-24T05:53:22;100651.94;;;7.27;90.85
75418;BME280;63997;52.112;5.420;2022-11-24T05:55:51;100654.41;;;7.23;90.71
75418;BME280;63997;52.112;5.420;2022-11-24T05:58:17;100663.13;;;7.24;90.89
75418;BME280;63997;52.112;5.420;2022-11-24T06:00:44;100675.09;;;7.21;90.93
75418;BME280;63997;52.112;5.420;2022-11-24T06:03:10;100671.97;;;7.19;91.05
75418;BME280;63997;52.112;5.420;2022-11-24T06:05:37;100679.91;;;7.19;90.90
75418;BME280;63997;52.112;5.420;2022-11-24T06:08:04;100685.47;;;7.18;90.94
75418;BME280;63997;52.112;5.420;2022-11-24T06:10:30;100688.44;;;7.16;90.88
75418;BME280;63997;52.112;5.420;2022-11-24T06:12:56;100688.72;;;7.14;90.94
75418;BME280;63997;52.112;5.420;2022-11-24T06:15:23;100697.75;;;7.13;90.77
75418;BME280;63997;52.112;5.420;2022-11-24T06:17:54;100698.81;;;7.12;90.84
75418;BME280;63997;52.112;5.420;2022-11-24T06:20:23;100703.31;;;7.12;90.78
75418;BME280;63997;52.112;5.420;2022-11-24T06:22:57;100707.34;;;7.09;90.92
75418;BME280;63997;52.112;5.420;2022-11-24T06:25:23;100711.56;;;7.10;91.13
75418;BME280;63997;52.112;5.420;2022-11-24T06:27:50;100723.41;;;7.13;91.02
75418;BME280;63997;52.112;5.420;2022-11-24T06:30:16;100730.53;;;7.12;90.95
75418;BME280;63997;52.112;5.420;2022-11-24T06:32:43;100734.28;;;7.11;91.08
75418;BME280;63997;52.112;5.420;2022-11-24T06:35:15;100738.78;;;7.11;91.16
75418;BME280;63997;52.112;5.420;2022-11-24T06:37:41;100747.03;;;7.09;91.03
75418;BME280;63997;52.112;5.420;2022-11-24T06:40:08;100753.41;;;7.08;91.16
75418;BME280;63997;52.112;5.420;2022-11-24T06:42:35;100756.63;;;7.05;91.12
75418;BME280;63997;52.112;5.420;2022-11-24T06:45:03;100768.75;;;7.06;91.32
75418;BME280;63997;52.112;5.420;2022-11-24T06:47:34;100762.22;;;7.04;91.44
75418;BME280;63997;52.112;5.420;2022-11-24T06:50:01;100772.00;;;7.03;91.51
75418;BME280;63997;52.112;5.420;2022-11-24T06:52:27;100779.16;;;7.03;91.65
75418;BME280;63997;52.112;5.420;2022-11-24T06:54:53;100777.59;;;7.02;91.61
75418;BME280;63997;52.112;5.420;2022-11-24T06:57:20;100780.25;;;7.02;92.01
75418;BME280;63997;52.112;5.420;2022-11-24T06:59:46;100779.72;;;7.00;91.88
75418;BME280;63997;52.112;5.420;2022-11-24T07:02:13;100787.97;;;6.98;91.79
75418;BME280;63997;52.112;5.420;2022-11-24T07:04:39;100799.91;;;6.96;91.91
75418;BME280;63997;52.112;5.420;2022-11-24T07:07:05;100804.41;;;6.95;91.95
75418;BME280;63997;52.112;5.420;2022-11-24T07:09:32;100813.13;;;6.96;92.08
75418;BME280;63997;52.112;5.420;2022-11-24T07:12:00;100806.56;;;6.93;92.12
75418;BME280;63997;52.112;5.420;2022-11-24T07:14:27;100816.38;;;6.93;92.19
75418;BME280;63997;52.112;5.420;2022-11-24T07:16:54;100820.88;;;6.92;92.15
75418;BME280;63997;52.112;5.420;2022-11-24T07:19:21;100823.53;;;6.92;92.33
75418;BME280;63997;52.112;5.420;2022-11-24T07:21:50;100833.00;;;6.93;92.34
75418;BME280;63997;52.112;5.420;2022-11-24T07:24:16;100835.19;;;6.91;92.36
75418;BME280;63997;52.112;5.420;2022-11-24T07:26:43;100842.31;;;6.91;92.34
75418;BME280;63997;52.112;5.420;2022-11-24T07:29:09;100845.75;;;6.91;92.52
75418;BME280;63997;52.112;5.420;2022-11-24T07:31:35;100841.72;;;6.94;92.62
75418;BME280;63997;52.112;5.420;2022-11-24T07:34:02;100841.44;;;6.95;92.50
75418;BME280;63997;52.112;5.420;2022-11-24T07:36:28;100847.00;;;6.94;92.57
75418;BME280;63997;52.112;5.420;2022-11-24T07:38:55;100848.41;;;6.91;92.75
75418;BME280;63997;52.112;5.420;2022-11-24T07:41:21;100854.47;;;6.92;92.71
75418;BME280;63997;52.112;5.420;2022-11-24T07:43:48;100859.75;;;6.92;92.70
75418;BME280;63997;52.112;5.420;2022-11-24T07:46:17;100868.94;;;6.94;92.72
75418;BME280;63997;52.112;5.420;2022-11-24T07:48:45;100868.84;;;6.99;92.72
75418;BME280;63997;52.112;5.420;2022-11-24T07:51:11;100867.28;;;6.98;92.84
75418;BME280;63997;52.112;5.420;2022-11-24T07:53:42;100882.06;;;6.99;92.99
75418;BME280;63997;52.112;5.420;2022-11-24T07:56:09;100882.06;;;6.99;93.03
75418;BME280;63997;52.112;5.420;2022-11-24T07:58:36;100887.84;;;7.01;93.23
75418;BME280;63997;52.112;5.420;2022-11-24T08:01:13;100901.06;;;7.01;93.27
75418;BME280;63997;52.112;5.420;2022-11-24T08:03:41;100908.72;;;7.03;93.34
75418;BME280;63997;52.112;5.420;2022-11-24T08:06:07;100914.78;;;7.03;93.31
75418;BME280;63997;52.112;5.420;2022-11-24T08:08:51;100918.69;;;7.06;93.49
75418;BME280;63997;52.112;5.420;2022-11-24T08:11:18;100927.91;;;7.08;93.63
75418;BME280;63997;52.112;5.420;2022-11-24T08:13:45;100921.53;;;7.09;93.65
75418;BME280;63997;52.112;5.420;2022-11-24T08:16:13;100931.25;;;7.14;93.58
75418;BME280;63997;52.112;5.420;2022-11-24T08:18:41;100932.50;;;7.16;93.47
75418;BME280;63997;52.112;5.420;2022-11-24T08:21:11;100940.97;;;7.19;93.59
75418;BME280;63997;52.112;5.420;2022-11-24T08:23:38;100938.78;;;7.21;93.63
75418;BME280;63997;52.112;5.420;2022-11-24T08:26:06;100934.50;;;7.25;93.64
75418;BME280;63997;52.112;5.420;2022-11-24T08:28:34;100935.75;;;7.27;93.51
75418;BME280;63997;52.112;5.420;2022-11-24T08:31:07;100934.41;;;7.30;93.58
75418;BME280;63997;52.112;5.420;2022-11-24T08:33:34;100940.16;;;7.32;93.56
75418;BME280;63997;52.112;5.420;2022-11-24T08:36:05;100940.16;;;7.32;93.74
75418;BME280;63997;52.112;5.420;2022-11-24T08:38:32;100946.44;;;7.36;93.71
75418;BME280;63997;52.112;5.420;2022-11-24T08:41:00;100954.28;;;7.41;93.51
75418;BME280;63997;52.112;5.420;2022-11-24T08:43:26;100955.25;;;7.45;93.60
75418;BME280;63997;52.112;5.420;2022-11-24T08:45:53;100957.78;;;7.50;93.59
75418;BME280;63997;52.112;5.420;2022-11-24T08:48:20;100950.38;;;7.52;93.54
75418;BME280;63997;52.112;5.420;2022-11-24T08:50:46;100948.19;;;7.54;93.63
75418;BME280;63997;52.112;5.420;2022-11-24T08:53:12;100949.56;;;7.52;93.57
75418;BME280;63997;52.112;5.420;2022-11-24T08:55:39;100972.09;;;7.49;93.34
75418;BME280;63997;52.112;5.420;2022-11-24T08:58:05;100968.97;;;7.47;93.46
75418;BME280;63997;52.112;5.420;2022-11-24T09:00:31;100974.53;;;7.46;93.45
75418;BME280;63997;52.112;5.420;2022-11-24T09:02:58;100978.09;;;7.41;93.23
75418;BME280;63997;52.112;5.420;2022-11-24T09:05:24;100980.75;;;7.41;93.05
75418;BME280;63997;52.112;5.420;2022-11-24T09:08:11;100983.88;;;7.43;93.24
75418;BME280;63997;52.112;5.420;2022-11-24T09:10:37;100985.03;;;7.51;93.19
75418;BME280;63997;52.112;5.420;2022-11-24T09:13:03;100990.53;;;7.54;93.32
75418;BME280;63997;52.112;5.420;2022-11-24T09:15:30;100996.22;;;7.61;93.35
75418;BME280;63997;52.112;5.420;2022-11-24T09:17:56;101003.16;;;7.85;93.20
75418;BME280;63997;52.112;5.420;2022-11-24T09:20:23;100991.19;;;7.87;92.81
75418;BME280;63997;52.112;5.420;2022-11-24T09:22:49;100995.63;;;7.92;92.52
75418;BME280;63997;52.112;5.420;2022-11-24T09:25:16;100997.66;;;7.95;92.26
75418;BME280;63997;52.112;5.420;2022-11-24T09:27:42;101005.00;;;7.98;92.08
75418;BME280;63997;52.112;5.420;2022-11-24T09:30:09;101007.66;;;7.98;92.02
75418;BME280;63997;52.112;5.420;2022-11-24T09:32:35;101016.09;;;8.00;91.89
75418;BME280;63997;52.112;5.420;2022-11-24T09:35:03;101013.34;;;8.05;91.96
75418;BME280;63997;52.112;5.420;2022-11-24T09:37:31;101015.66;;;8.07;91.62
75418;BME280;63997;52.112;5.420;2022-11-24T09:39:58;101023.81;;;8.10;91.71
75418;BME280;63997;52.112;5.420;2022-11-24T09:45:54;101028.91;;;8.20;91.63
75418;BME280;63997;52.112;5.420;2022-11-24T09:48:35;101039.09;;;8.27;91.41
75418;BME280;63997;52.112;5.420;2022-11-24T09:51:04;101044.28;;;8.32;91.52
75418;BME280;63997;52.112;5.420;2022-11-24T09:53:36;101043.13;;;8.38;91.35
75418;BME280;63997;52.112;5.420;2022-11-24T09:56:19;101042.06;;;8.84;90.64
75418;BME280;63997;52.112;5.420;2022-11-24T09:58:48;101051.88;;;8.84;90.20
75418;BME280;63997;52.112;5.420;2022-11-24T10:01:19;101046.34;;;9.56;88.87
75418;BME280;63997;52.112;5.420;2022-11-24T10:03:49;101053.91;;;9.32;88.12
75418;BME280;63997;52.112;5.420;2022-11-24T10:06:32;101056.72;;;9.04;88.43
75418;BME280;63997;52.112;5.420;2022-11-24T10:20:40;101077.09;;;8.95;89.55
75418;BME280;63997;52.112;5.420;2022-11-24T10:23:32;101076.00;;;8.96;89.17
75418;BME280;63997;52.112;5.420;2022-11-24T10:26:09;101081.06;;;8.84;89.17
75418;BME280;63997;52.112;5.420;2022-11-24T10:28:47;101079.00;;;8.81;89.50
75418;BME280;63997;52.112;5.420;2022-11-24T10:33:46;101095.34;;;8.96;88.75
75418;BME280;63997;52.112;5.420;2022-11-24T10:36:30;101092.88;;;9.00;89.06
75418;BME280;63997;52.112;5.420;2022-11-24T10:42:27;101100.38;;;8.98;89.16
75418;BME280;63997;52.112;5.420;2022-11-24T10:45:10;101099.16;;;9.04;88.92
75418;BME280;63997;52.112;5.420;2022-11-24T10:47:38;101109.16;;;9.07;89.17
75418;BME280;63997;52.112;5.420;2022-11-24T10:50:25;101112.66;;;9.16;89.05
75418;BME280;63997;52.112;5.420;2022-11-24T10:53:27;101112.22;;;9.23;88.82
75418;BME280;63997;52.112;5.420;2022-11-24T11:01:17;101122.66;;;9.19;87.46
75418;BME280;63997;52.112;5.420;2022-11-24T11:03:50;101125.44;;;9.14;87.17
75418;BME280;63997;52.112;5.420;2022-11-24T11:06:23;101125.06;;;9.07;87.25
75418;BME280;63997;52.112;5.420;2022-11-24T11:11:41;101136.44;;;9.21;87.32
75418;BME280;63997;52.112;5.420;2022-11-24T11:14:10;101128.50;;;9.30;86.69
75418;BME280;63997;52.112;5.420;2022-11-24T11:19:35;101130.41;;;9.61;86.96
75418;BME280;63997;52.112;5.420;2022-11-24T11:22:29;101134.00;;;9.65;86.06
75418;BME280;63997;52.112;5.420;2022-11-24T11:25:13;101125.44;;;9.68;85.73
75418;BME280;63997;52.112;5.420;2022-11-24T11:27:42;101125.25;;;9.64;85.62
75418;BME280;63997;52.112;5.420;2022-11-24T11:30:24;101129.50;;;9.65;85.31
75418;BME280;63997;52.112;5.420;2022-11-24T11:33:22;101119.81;;;9.69;85.94
75418;BME280;63997;52.112;5.420;2022-11-24T11:36:09;101132.69;;;9.85;85.93
75418;BME280;63997;52.112;5.420;2022-11-24T11:38:38;101124.94;;;9.97;85.64
75418;BME280;63997;52.112;5.420;2022-11-24T11:41:12;101117.59;;;10.02;85.23
75418;BME280;63997;52.112;5.420;2022-11-24T11:43:44;101118.72;;;10.10;84.85
75418;BME280;63997;52.112;5.420;2022-11-24T11:46:13;101117.00;;;10.14;84.11
75418;BME280;63997;52.112;5.420;2022-11-24T11:48:45;101116.72;;;10.16;83.92
75418;BME280;63997;52.112;5.420;2022-11-24T11:57:32;101127.88;;;10.35;84.17
75418;BME280;63997;52.112;5.420;2022-11-24T12:00:15;101125.84;;;10.41;83.88
75418;BME280;63997;52.112;5.420;2022-11-24T12:03:01;101124.94;;;10.45;82.98
75418;BME280;63997;52.112;5.420;2022-11-24T12:06:12;101125.84;;;10.49;83.47
75418;BME280;63997;52.112;5.420;2022-11-24T12:09:19;101129.00;;;10.51;82.81
75418;BME280;63997;52.112;5.420;2022-11-24T12:12:07;101126.50;;;10.55;82.84
75418;BME280;63997;52.112;5.420;2022-11-24T12:25:55;101125.25;;;10.70;82.41
75418;BME280;63997;52.112;5.420;2022-11-24T12:28:47;101136.53;;;10.67;82.20
75418;BME280;63997;52.112;5.420;2022-11-24T12:31:50;101132.59;;;10.64;82.23
75418;BME280;63997;52.112;5.420;2022-11-24T12:37:38;101131.84;;;10.64;82.05
75418;BME280;63997;52.112;5.420;2022-11-24T12:50:36;101150.00;;;10.62;82.01
75418;BME280;63997;52.112;5.420;2022-11-24T12:53:19;101154.03;;;10.59;81.75
75418;BME280;63997;52.112;5.420;2022-11-24T12:55:48;101156.88;;;10.63;81.94
75418;BME280;63997;52.112;5.420;2022-11-24T12:58:36;101160.31;;;10.63;81.39
75418;BME280;63997;52.112;5.420;2022-11-24T13:01:15;101157.81;;;10.67;81.56
75418;BME280;63997;52.112;5.420;2022-11-24T13:09:06;101148.75;;;10.68;81.30
75418;BME280;63997;52.112;5.420;2022-11-24T13:11:43;101150.13;;;10.65;81.17
75418;BME280;63997;52.112;5.420;2022-11-24T13:14:27;101152.66;;;10.62;80.91
75418;BME280;63997;52.112;5.420;2022-11-24T13:17:00;101156.69;;;10.59;81.12
75418;BME280;63997;52.112;5.420;2022-11-24T13:19:48;101151.38;;;10.59;80.86
75418;BME280;63997;52.112;5.420;2022-11-24T13:22:21;101149.22;;;10.61;81.32
75418;BME280;63997;52.112;5.420;2022-11-24T13:27:42;101153.56;;;10.66;80.67
75418;BME280;63997;52.112;5.420;2022-11-24T13:38:40;101148.56;;;10.64;81.00
75418;BME280;63997;52.112;5.420;2022-11-24T13:41:07;101141.38;;;10.65;80.94
75418;BME280;63997;52.112;5.420;2022-11-24T13:47:00;101144.81;;;10.65;81.09
75418;BME280;63997;52.112;5.420;2022-11-24T13:49:40;101150.78;;;10.62;80.84
75418;BME280;63997;52.112;5.420;2022-11-24T13:55:03;101145.44;;;10.62;81.11
75418;BME280;63997;52.112;5.420;2022-11-24T14:00:35;101150.28;;;10.60;80.70
75418;BME280;63997;52.112;5.420;2022-11-24T14:03:27;101141.38;;;10.56;80.47
75418;BME280;63997;52.112;5.420;2022-11-24T14:05:55;101137.75;;;10.52;80.52
75418;BME280;63997;52.112;5.420;2022-11-24T14:08:27;101142.31;;;10.51;80.74
75418;BME280;63997;52.112;5.420;2022-11-24T14:10:56;101141.53;;;10.51;80.67
75418;BME280;63997;52.112;5.420;2022-11-24T14:13:32;101143.41;;;10.50;80.40
75418;BME280;63997;52.112;5.420;2022-11-24T14:16:12;101139.47;;;10.48;80.46
75418;BME280;63997;52.112;5.420;2022-11-24T14:18:44;101148.09;;;10.45;80.89
75418;BME280;63997;52.112;5.420;2022-11-24T14:21:27;101139.63;;;10.43;80.91
75418;BME280;63997;52.112;5.420;2022-11-24T14:24:06;101142.41;;;10.38;81.10
75418;BME280;63997;52.112;5.420;2022-11-24T14:26:37;101141.50;;;10.33;80.53
75418;BME280;63997;52.112;5.420;2022-11-24T14:31:32;101128.47;;;10.23;80.79
75418;BME280;63997;52.112;5.420;2022-11-24T14:34:16;101131.84;;;10.15;81.04
75418;BME280;63997;52.112;5.420;2022-11-24T14:36:42;101127.00;;;10.08;81.12
75418;BME280;63997;52.112;5.420;2022-11-24T14:39:14;101124.63;;;9.98;81.17
75418;BME280;63997;52.112;5.420;2022-11-24T14:41:50;101132.25;;;9.91;81.42
75418;BME280;63997;52.112;5.420;2022-11-24T14:44:23;101133.78;;;9.84;81.36
75418;BME280;63997;52.112;5.420;2022-11-24T14:47:00;101140.16;;;9.74;81.67